sensor_id;sensor_type;location;lat;lon;timestamp;pressure;altitude;pressure_sealevel;temperature;humidity
84926;BME280;75187;48.190;16.294;2024-03-06T00:00:22;99198.66;;;12.29;63.33
84926;BME280;75187;48.190;16.294;2024-03-06T00:02:48;99172.72;;;12.13;63.68
84926;BME280;75187;48.190;16.294;2024-03-06T00:05:13;99181.34;;;12.15;64.36
84926;BME280;75187;48.190;16.294;2024-03-06T00:07:38;99091.97;;;11.70;63.60
84926;BME280;75187;48.190;16.294;2024-03-06T00:10:04;99203.25;;;12.27;63.27
84926;BME280;75187;48.190;16.294;2024-03-06T00:12:32;99088.28;;;11.41;63.57
84926;BME280;75187;48.190;16.294;2024-03-06T00:14:57;99098.53;;;11.34;63.79
84926;BME280;75187;48.190;16.294;2024-03-06T00:17:23;99102.72;;;11.37;63.89
84926;BME280;75187;48.190;16.294;2024-03-06T00:19:48;99118.28;;;11.40;63.69
84926;BME280;75187;48.190;16.294;2024-03-06T00:22:13;99218.97;;;11.98;64.19
84926;BME280;75187;48.190;16.294;2024-03-06T00:24:39;99098.25;;;11.17;64.06
84926;BME280;75187;48.190;16.294;2024-03-06T00:27:04;99121.38;;;11.45;63.56
84926;BME280;75187;48.190;16.294;2024-03-06T00:29:31;99235.19;;;11.94;63.97
84926;BME280;75187;48.190;16.294;2024-03-06T00:31:56;99217.84;;;11.80;63.78
84926;BME280;75187;48.190;16.294;2024-03-06T00:34:21;99136.56;;;11.32;63.82
84926;BME280;75187;48.190;16.294;2024-03-06T00:36:47;99133.09;;;11.00;64.37
84926;BME280;75187;48.190;16.294;2024-03-06T00:39:12;99219.53;;;11.50;64.30
84926;BME280;75187;48.190;16.294;2024-03-06T00:41:40;99140.31;;;10.98;65.10
84926;BME280;75187;48.190;16.294;2024-03-06T00:44:07;99039.53;;;10.41;64.60
84926;BME280;75187;48.190;16.294;2024-03-06T00:46:32;99234.38;;;11.62;64.64
84926;BME280;75187;48.190;16.294;2024-03-06T00:48:58;99150.31;;;11.15;64.06
84926;BME280;75187;48.190;16.294;2024-03-06T00:51:23;99217.34;;;11.55;64.54
84926;BME280;75187;48.190;16.294;2024-03-06T00:53:49;99220.72;;;11.57;64.36
84926;BME280;75187;48.190;16.294;2024-03-06T00:56:14;99135.81;;;11.09;64.88
84926;BME280;75187;48.190;16.294;2024-03-06T00:58:40;99136.34;;;11.03;64.52
84926;BME280;75187;48.190;16.294;2024-03-06T01:01:05;99173.94;;;11.16;64.63
84926;BME280;75187;48.190;16.294;2024-03-06T01:03:31;99196.19;;;11.34;65.16
84926;BME280;75187;48.190;16.294;2024-03-06T01:05:56;99236.13;;;11.41;64.91
84926;BME280;75187;48.190;16.294;2024-03-06T01:08:24;99108.13;;;10.61;66.08
84926;BME280;75187;48.190;16.294;2024-03-06T01:10:52;99114.00;;;10.65;65.34
84926;BME280;75187;48.190;16.294;2024-03-06T01:13:19;99236.38;;;11.38;65.88
84926;BME280;75187;48.190;16.294;2024-03-06T01:15:45;99191.38;;;11.28;65.67
84926;BME280;75187;48.190;16.294;2024-03-06T01:18:10;99199.47;;;11.27;65.95
84926;BME280;75187;48.190;16.294;2024-03-06T01:20:36;99097.84;;;10.58;65.44
84926;BME280;75187;48.190;16.294;2024-03-06T01:23:02;99251.25;;;11.39;65.54
84926;BME280;75187;48.190;16.294;2024-03-06T01:25:27;99191.75;;;11.03;65.50
84926;BME280;75187;48.190;16.294;2024-03-06T01:27:53;99234.50;;;11.18;66.00
84926;BME280;75187;48.190;16.294;2024-03-06T01:30:18;99094.78;;;10.32;66.12
84926;BME280;75187;48.190;16.294;2024-03-06T01:32:44;99102.84;;;10.30;66.45
84926;BME280;75187;48.190;16.294;2024-03-06T01:35:09;99242.94;;;11.01;67.33
84926;BME280;75187;48.190;16.294;2024-03-06T01:37:35;99141.13;;;10.56;66.49
84926;BME280;75187;48.190;16.294;2024-03-06T01:40:00;99122.09;;;10.41;66.21
84926;BME280;75187;48.190;16.294;2024-03-06T01:42:25;99235.22;;;11.20;65.67
84926;BME280;75187;48.190;16.294;2024-03-06T01:44:51;99241.44;;;11.19;65.52
84926;BME280;75187;48.190;16.294;2024-03-06T01:47:16;99129.63;;;10.46;66.06
84926;BME280;75187;48.190;16.294;2024-03-06T01:49:42;99106.44;;;10.29;66.59
84926;BME280;75187;48.190;16.294;2024-03-06T01:52:09;99127.00;;;10.35;65.99
84926;BME280;75187;48.190;16.294;2024-03-06T01:54:37;99175.75;;;10.51;67.00
84926;BME280;75187;48.190;16.294;2024-03-06T01:57:03;99229.66;;;10.80;66.95
84926;BME280;75187;48.190;16.294;2024-03-06T01:59:29;99232.41;;;10.79;66.23
84926;BME280;75187;48.190;16.294;2024-03-06T02:01:55;99247.50;;;10.88;66.92
84926;BME280;75187;48.190;16.294;2024-03-06T02:04:22;99254.47;;;10.89;66.84
84926;BME280;75187;48.190;16.294;2024-03-06T02:06:48;99205.81;;;10.71;66.16
84926;BME280;75187;48.190;16.294;2024-03-06T02:09:13;99251.56;;;10.92;67.13
84926;BME280;75187;48.190;16.294;2024-03-06T02:11:39;99141.63;;;10.28;66.76
84926;BME280;75187;48.190;16.294;2024-03-06T02:14:05;99149.66;;;10.27;66.84
84926;BME280;75187;48.190;16.294;2024-03-06T02:16:32;99252.56;;;10.69;67.04
84926;BME280;75187;48.190;16.294;2024-03-06T02:18:57;99250.03;;;10.45;68.13
84926;BME280;75187;48.190;16.294;2024-03-06T02:21:24;99207.63;;;10.27;68.54
84926;BME280;75187;48.190;16.294;2024-03-06T02:23:50;99261.78;;;10.52;68.77
84926;BME280;75187;48.190;16.294;2024-03-06T02:26:19;99262.16;;;10.59;68.11
84926;BME280;75187;48.190;16.294;2024-03-06T02:28:51;99147.09;;;9.92;68.29
84926;BME280;75187;48.190;16.294;2024-03-06T02:31:18;99177.06;;;10.24;68.13
84926;BME280;75187;48.190;16.294;2024-03-06T02:33:45;99130.59;;;10.12;67.41
84926;BME280;75187;48.190;16.294;2024-03-06T02:36:12;99246.09;;;10.62;68.19
84926;BME280;75187;48.190;16.294;2024-03-06T02:38:37;99251.38;;;10.62;67.51
84926;BME280;75187;48.190;16.294;2024-03-06T02:41:03;99250.88;;;10.46;68.55
84926;BME280;75187;48.190;16.294;2024-03-06T02:43:28;99257.84;;;10.47;68.45
84926;BME280;75187;48.190;16.294;2024-03-06T02:45:53;99187.69;;;10.01;68.45
84926;BME280;75187;48.190;16.294;2024-03-06T02:48:19;99261.66;;;10.54;69.15
84926;BME280;75187;48.190;16.294;2024-03-06T02:50:44;99223.66;;;10.45;68.45
84926;BME280;75187;48.190;16.294;2024-03-06T02:53:10;99260.94;;;10.74;68.69
84926;BME280;75187;48.190;16.294;2024-03-06T02:55:35;99248.47;;;10.54;68.08
84926;BME280;75187;48.190;16.294;2024-03-06T02:58:03;99259.53;;;10.70;68.51
84926;BME280;75187;48.190;16.294;2024-03-06T03:00:29;99269.47;;;10.66;68.25
84926;BME280;75187;48.190;16.294;2024-03-06T03:02:55;99168.94;;;10.05;68.01
84926;BME280;75187;48.190;16.294;2024-03-06T03:05:21;99155.28;;;10.11;68.52
84926;BME280;75187;48.190;16.294;2024-03-06T03:07:46;99256.13;;;10.68;68.13
84926;BME280;75187;48.190;16.294;2024-03-06T03:10:12;99249.53;;;10.73;68.13
84926;BME280;75187;48.190;16.294;2024-03-06T03:12:40;99254.47;;;10.67;68.57
84926;BME280;75187;48.190;16.294;2024-03-06T03:15:05;99247.00;;;10.28;68.32
84926;BME280;75187;48.190;16.294;2024-03-06T03:17:32;99156.53;;;9.73;68.51
84926;BME280;75187;48.190;16.294;2024-03-06T03:19:58;99268.13;;;10.50;68.64
84926;BME280;75187;48.190;16.294;2024-03-06T03:22:23;99190.47;;;10.10;67.88
84926;BME280;75187;48.190;16.294;2024-03-06T03:24:48;99261.06;;;9.94;70.48
84926;BME280;75187;48.190;16.294;2024-03-06T03:27:14;99283.03;;;10.06;70.95
84926;BME280;75187;48.190;16.294;2024-03-06T03:29:39;99282.09;;;10.18;69.50
84926;BME280;75187;48.190;16.294;2024-03-06T03:32:05;99261.66;;;9.98;69.61
84926;BME280;75187;48.190;16.294;2024-03-06T03:34:30;99291.22;;;10.01;70.07
84926;BME280;75187;48.190;16.294;2024-03-06T03:36:56;99203.88;;;9.62;69.75
84926;BME280;75187;48.190;16.294;2024-03-06T03:39:22;99299.56;;;10.19;68.99
84926;BME280;75187;48.190;16.294;2024-03-06T03:41:49;99275.63;;;9.87;68.96
84926;BME280;75187;48.190;16.294;2024-03-06T03:44:16;99280.69;;;9.90;70.10
84926;BME280;75187;48.190;16.294;2024-03-06T03:46:42;99279.81;;;9.90;69.42
84926;BME280;75187;48.190;16.294;2024-03-06T03:49:08;99291.56;;;9.86;69.81
84926;BME280;75187;48.190;16.294;2024-03-06T03:51:37;99276.66;;;9.74;69.88
84926;BME280;75187;48.190;16.294;2024-03-06T03:54:03;99167.13;;;9.15;69.93
84926;BME280;75187;48.190;16.294;2024-03-06T03:56:29;99201.50;;;9.35;69.92
84926;BME280;75187;48.190;16.294;2024-03-06T03:58:56;99317.16;;;10.07;69.22
84926;BME280;75187;48.190;16.294;2024-03-06T04:01:22;99294.91;;;9.88;69.48
84926;BME280;75187;48.190;16.294;2024-03-06T04:03:48;99096.47;;;8.63;69.52
84926;BME280;75187;48.190;16.294;2024-03-06T04:06:14;99300.19;;;9.64;70.31
84926;BME280;75187;48.190;16.294;2024-03-06T04:08:39;99252.94;;;9.39;68.95
84926;BME280;75187;48.190;16.294;2024-03-06T04:11:05;99183.22;;;9.10;68.89
84926;BME280;75187;48.190;16.294;2024-03-06T04:13:30;99132.03;;;8.56;69.66
84926;BME280;75187;48.190;16.294;2024-03-06T04:16:00;99293.59;;;9.59;69.62
84926;BME280;75187;48.190;16.294;2024-03-06T04:18:26;99308.03;;;9.30;69.55
84926;BME280;75187;48.190;16.294;2024-03-06T04:20:51;99212.00;;;8.88;69.43
84926;BME280;75187;48.190;16.294;2024-03-06T04:23:16;99181.75;;;9.06;67.54
84926;BME280;75187;48.190;16.294;2024-03-06T04:25:43;99310.00;;;9.62;68.35
84926;BME280;75187;48.190;16.294;2024-03-06T04:28:08;99308.38;;;9.13;69.67
84926;BME280;75187;48.190;16.294;2024-03-06T04:30:33;99192.22;;;8.59;69.50
84926;BME280;75187;48.190;16.294;2024-03-06T04:32:59;99299.81;;;9.34;69.18
84926;BME280;75187;48.190;16.294;2024-03-06T04:35:24;99297.22;;;9.45;68.81
84926;BME280;75187;48.190;16.294;2024-03-06T04:37:50;99291.19;;;9.56;67.27
84926;BME280;75187;48.190;16.294;2024-03-06T04:40:15;99210.63;;;9.19;67.17
84926;BME280;75187;48.190;16.294;2024-03-06T04:42:45;99312.91;;;9.70;67.03
84926;BME280;75187;48.190;16.294;2024-03-06T04:45:13;99310.44;;;9.56;67.00
84926;BME280;75187;48.190;16.294;2024-03-06T04:47:40;99287.38;;;9.36;68.24
84926;BME280;75187;48.190;16.294;2024-03-06T04:50:09;99200.84;;;8.97;67.02
84926;BME280;75187;48.190;16.294;2024-03-06T04:52:36;99311.47;;;9.66;67.01
84926;BME280;75187;48.190;16.294;2024-03-06T04:55:01;99243.25;;;9.16;66.87
84926;BME280;75187;48.190;16.294;2024-03-06T04:57:28;99326.06;;;9.70;66.62
84926;BME280;75187;48.190;16.294;2024-03-06T04:59:53;99269.56;;;9.63;66.35
84926;BME280;75187;48.190;16.294;2024-03-06T05:02:18;99202.03;;;9.17;66.22
84926;BME280;75187;48.190;16.294;2024-03-06T05:04:44;99325.84;;;9.97;66.57
84926;BME280;75187;48.190;16.294;2024-03-06T05:07:09;99322.81;;;9.90;66.05
84926;BME280;75187;48.190;16.294;2024-03-06T05:09:35;99296.16;;;9.71;66.39
84926;BME280;75187;48.190;16.294;2024-03-06T05:12:01;99203.81;;;8.93;67.00
84926;BME280;75187;48.190;16.294;2024-03-06T05:14:26;99326.59;;;9.75;67.02
84926;BME280;75187;48.190;16.294;2024-03-06T05:16:51;99134.50;;;8.70;66.32
84926;BME280;75187;48.190;16.294;2024-03-06T05:19:18;99213.19;;;9.31;66.49
84926;BME280;75187;48.190;16.294;2024-03-06T05:21:43;99225.69;;;9.40;65.77
84926;BME280;75187;48.190;16.294;2024-03-06T05:24:09;99344.50;;;10.17;65.26
84926;BME280;75187;48.190;16.294;2024-03-06T05:26:34;99235.06;;;9.55;65.74
84926;BME280;75187;48.190;16.294;2024-03-06T05:28:59;99213.53;;;9.50;65.29
84926;BME280;75187;48.190;16.294;2024-03-06T05:31:25;99298.00;;;10.05;64.43
84926;BME280;75187;48.190;16.294;2024-03-06T05:33:50;99318.16;;;10.17;64.92
84926;BME280;75187;48.190;16.294;2024-03-06T05:36:16;99325.72;;;10.22;65.32
84926;BME280;75187;48.190;16.294;2024-03-06T05:38:43;99311.31;;;9.91;65.57
84926;BME280;75187;48.190;16.294;2024-03-06T05:41:08;99307.22;;;9.87;64.82
84926;BME280;75187;48.190;16.294;2024-03-06T05:43:34;99236.13;;;9.53;65.20
84926;BME280;75187;48.190;16.294;2024-03-06T05:45:59;99316.97;;;9.98;65.71
84926;BME280;75187;48.190;16.294;2024-03-06T05:48:26;99231.72;;;9.53;65.06
84926;BME280;75187;48.190;16.294;2024-03-06T05:50:52;99331.53;;;10.03;64.41
84926;BME280;75187;48.190;16.294;2024-03-06T05:53:17;99296.31;;;10.04;64.08
84926;BME280;75187;48.190;16.294;2024-03-06T05:55:43;99341.88;;;10.28;63.80
84926;BME280;75187;48.190;16.294;2024-03-06T05:58:09;99344.50;;;10.17;64.43
84926;BME280;75187;48.190;16.294;2024-03-06T06:00:35;99314.94;;;10.01;63.88
84926;BME280;75187;48.190;16.294;2024-03-06T06:03:00;99317.16;;;10.07;63.78
84926;BME280;75187;48.190;16.294;2024-03-06T06:05:25;99310.63;;;10.00;64.06
84926;BME280;75187;48.190;16.294;2024-03-06T06:07:51;99312.94;;;10.05;64.21
84926;BME280;75187;48.190;16.294;2024-03-06T06:10:17;99331.44;;;10.16;64.77
84926;BME280;75187;48.190;16.294;2024-03-06T06:12:42;99344.41;;;10.30;64.42
84926;BME280;75187;48.190;16.294;2024-03-06T06:15:08;99274.53;;;9.79;63.71
84926;BME280;75187;48.190;16.294;2024-03-06T06:17:34;99327.69;;;10.07;63.49
84926;BME280;75187;48.190;16.294;2024-03-06T06:20:00;99343.59;;;10.06;64.13
84926;BME280;75187;48.190;16.294;2024-03-06T06:22:28;99092.44;;;8.70;63.57
84926;BME280;75187;48.190;16.294;2024-03-06T06:24:54;99267.97;;;9.84;63.75
84926;BME280;75187;48.190;16.294;2024-03-06T06:27:20;99144.22;;;9.04;63.44
84926;BME280;75187;48.190;16.294;2024-03-06T06:29:46;99287.09;;;9.86;63.50
84926;BME280;75187;48.190;16.294;2024-03-06T06:32:12;99329.28;;;10.21;63.75
84926;BME280;75187;48.190;16.294;2024-03-06T06:34:37;99371.84;;;10.38;62.78
84926;BME280;75187;48.190;16.294;2024-03-06T06:37:02;99274.31;;;9.93;62.41
84926;BME280;75187;48.190;16.294;2024-03-06T06:39:28;99362.53;;;10.45;61.46
84926;BME280;75187;48.190;16.294;2024-03-06T06:41:53;99263.53;;;9.85;62.64
84926;BME280;75187;48.190;16.294;2024-03-06T06:44:19;99370.22;;;10.48;62.67
84926;BME280;75187;48.190;16.294;2024-03-06T06:46:44;99382.09;;;10.19;62.38
84926;BME280;75187;48.190;16.294;2024-03-06T06:49:09;99382.22;;;10.18;62.74
84926;BME280;75187;48.190;16.294;2024-03-06T06:51:35;99281.44;;;9.69;62.83
84926;BME280;75187;48.190;16.294;2024-03-06T06:54:00;99372.38;;;10.43;62.97
84926;BME280;75187;48.190;16.294;2024-03-06T06:56:26;99171.63;;;9.36;62.36
84926;BME280;75187;48.190;16.294;2024-03-06T06:58:51;99356.06;;;10.49;62.17
84926;BME280;75187;48.190;16.294;2024-03-06T07:01:17;99267.91;;;9.97;61.87
84926;BME280;75187;48.190;16.294;2024-03-06T07:03:42;99292.53;;;10.19;63.42
84926;BME280;75187;48.190;16.294;2024-03-06T07:06:08;99271.72;;;10.38;62.97
84926;BME280;75187;48.190;16.294;2024-03-06T07:08:33;99264.28;;;10.54;61.90
84926;BME280;75187;48.190;16.294;2024-03-06T07:10:59;99297.13;;;11.05;61.02
84926;BME280;75187;48.190;16.294;2024-03-06T07:13:24;99330.56;;;11.37;60.71
84926;BME280;75187;48.190;16.294;2024-03-06T07:15:50;99382.84;;;11.54;59.58
84926;BME280;75187;48.190;16.294;2024-03-06T07:18:15;99393.53;;;11.75;59.89
84926;BME280;75187;48.190;16.294;2024-03-06T07:20:40;99341.22;;;11.69;57.78
84926;BME280;75187;48.190;16.294;2024-03-06T07:23:06;99380.16;;;11.98;58.06
84926;BME280;75187;48.190;16.294;2024-03-06T07:25:32;99291.34;;;11.22;58.68
84926;BME280;75187;48.190;16.294;2024-03-06T07:27:57;99285.06;;;11.45;59.37
84926;BME280;75187;48.190;16.294;2024-03-06T07:30:22;99360.09;;;11.96;57.49
84926;BME280;75187;48.190;16.294;2024-03-06T07:32:48;99278.28;;;11.31;57.42
84926;BME280;75187;48.190;16.294;2024-03-06T07:35:13;99404.22;;;12.16;57.66
84926;BME280;75187;48.190;16.294;2024-03-06T07:37:39;99328.13;;;11.99;56.36
84926;BME280;75187;48.190;16.294;2024-03-06T07:40:06;99399.44;;;12.61;55.87
84926;BME280;75187;48.190;16.294;2024-03-06T07:42:33;99387.88;;;12.42;55.42
84926;BME280;75187;48.190;16.294;2024-03-06T07:44:58;99209.06;;;11.59;54.89
84926;BME280;75187;48.190;16.294;2024-03-06T07:47:24;99394.34;;;12.69;54.14
84926;BME280;75187;48.190;16.294;2024-03-06T07:49:49;99412.25;;;12.77;54.05
84926;BME280;75187;48.190;16.294;2024-03-06T07:52:15;99299.13;;;12.29;52.69
84926;BME280;75187;48.190;16.294;2024-03-06T07:54:41;99296.63;;;12.27;52.65
84926;BME280;75187;48.190;16.294;2024-03-06T07:57:06;99293.59;;;12.32;52.54
84926;BME280;75187;48.190;16.294;2024-03-06T07:59:31;99386.25;;;12.91;51.30
84926;BME280;75187;48.190;16.294;2024-03-06T08:01:57;99257.13;;;11.74;52.29
84926;BME280;75187;48.190;16.294;2024-03-06T08:04:22;99414.91;;;12.97;52.57
84926;BME280;75187;48.190;16.294;2024-03-06T08:06:48;99308.03;;;12.28;50.85
84926;BME280;75187;48.190;16.294;2024-03-06T08:09:14;99315.53;;;12.23;52.25
84926;BME280;75187;48.190;16.294;2024-03-06T08:11:41;99358.00;;;12.92;51.17
84926;BME280;75187;48.190;16.294;2024-03-06T08:14:07;99409.28;;;13.51;50.05
84926;BME280;75187;48.190;16.294;2024-03-06T08:16:33;99401.81;;;13.65;49.54
84926;BME280;75187;48.190;16.294;2024-03-06T08:18:59;99292.66;;;13.22;49.47
84926;BME280;75187;48.190;16.294;2024-03-06T08:21:25;99303.78;;;13.16;48.94
84926;BME280;75187;48.190;16.294;2024-03-06T08:23:51;99405.59;;;13.82;51.09
84926;BME280;75187;48.190;16.294;2024-03-06T08:26:16;99366.00;;;13.80;48.97
84926;BME280;75187;48.190;16.294;2024-03-06T08:28:41;99413.13;;;14.26;47.72
84926;BME280;75187;48.190;16.294;2024-03-06T08:31:07;99400.00;;;14.24;49.03
84926;BME280;75187;48.190;16.294;2024-03-06T08:33:33;99320.25;;;14.07;48.83
84926;BME280;75187;48.190;16.294;2024-03-06T08:35:59;99408.38;;;14.48;46.97
84926;BME280;75187;48.190;16.294;2024-03-06T08:38:24;99377.34;;;14.58;47.14
84926;BME280;75187;48.190;16.294;2024-03-06T08:40:50;99418.84;;;14.40;46.41
84926;BME280;75187;48.190;16.294;2024-03-06T08:43:16;99417.59;;;14.63;46.80
84926;BME280;75187;48.190;16.294;2024-03-06T08:45:42;99395.19;;;14.84;47.03
84926;BME280;75187;48.190;16.294;2024-03-06T08:48:07;99288.00;;;14.30;46.12
84926;BME280;75187;48.190;16.294;2024-03-06T08:50:33;99305.69;;;14.58;45.66
84926;BME280;75187;48.190;16.294;2024-03-06T08:52:58;99304.59;;;14.51;44.84
84926;BME280;75187;48.190;16.294;2024-03-06T08:55:24;99259.25;;;14.35;44.59
84926;BME280;75187;48.190;16.294;2024-03-06T08:57:49;99389.09;;;15.30;43.73
84926;BME280;75187;48.190;16.294;2024-03-06T09:00:15;99397.19;;;14.73;44.36
84926;BME280;75187;48.190;16.294;2024-03-06T09:02:42;99380.34;;;15.01;43.92
84926;BME280;75187;48.190;16.294;2024-03-06T09:05:08;99339.94;;;14.42;44.21
84926;BME280;75187;48.190;16.294;2024-03-06T09:07:35;99370.81;;;15.08;45.13
84926;BME280;75187;48.190;16.294;2024-03-06T09:10:12;99316.53;;;15.20;44.22
84926;BME280;75187;48.190;16.294;2024-03-06T09:12:38;99405.06;;;15.57;43.49
84926;BME280;75187;48.190;16.294;2024-03-06T09:15:04;99394.31;;;15.49;44.00
84926;BME280;75187;48.190;16.294;2024-03-06T09:17:30;99300.38;;;15.04;44.05
84926;BME280;75187;48.190;16.294;2024-03-06T09:19:55;99398.09;;;16.18;42.66
84926;BME280;75187;48.190;16.294;2024-03-06T09:22:21;99375.81;;;16.19;41.80
84926;BME280;75187;48.190;16.294;2024-03-06T09:24:46;99389.41;;;16.43;42.37
84926;BME280;75187;48.190;16.294;2024-03-06T09:27:13;99381.31;;;15.46;43.44
84926;BME280;75187;48.190;16.294;2024-03-06T09:29:40;99366.00;;;15.84;42.29
84926;BME280;75187;48.190;16.294;2024-03-06T09:32:06;99393.75;;;16.17;41.97
84926;BME280;75187;48.190;16.294;2024-03-06T09:34:31;99299.69;;;16.00;41.45
84926;BME280;75187;48.190;16.294;2024-03-06T09:36:57;99302.56;;;16.07;41.16
84926;BME280;75187;48.190;16.294;2024-03-06T09:39:22;99312.97;;;16.35;40.74
84926;BME280;75187;48.190;16.294;2024-03-06T09:41:51;99380.91;;;17.07;40.40
84926;BME280;75187;48.190;16.294;2024-03-06T09:44:17;99375.34;;;17.26;39.81
84926;BME280;75187;48.190;16.294;2024-03-06T09:46:47;99304.66;;;16.81;39.80
84926;BME280;75187;48.190;16.294;2024-03-06T09:49:18;99397.50;;;17.52;40.54
84926;BME280;75187;48.190;16.294;2024-03-06T09:51:45;99389.69;;;17.59;40.10
84926;BME280;75187;48.190;16.294;2024-03-06T09:54:12;99323.13;;;17.08;39.25
84926;BME280;75187;48.190;16.294;2024-03-06T09:56:41;99324.59;;;17.02;39.96
84926;BME280;75187;48.190;16.294;2024-03-06T09:59:07;99387.22;;;17.32;40.36
84926;BME280;75187;48.190;16.294;2024-03-06T10:01:33;99384.19;;;17.27;39.70
84926;BME280;75187;48.190;16.294;2024-03-06T10:03:58;99386.38;;;16.81;39.62
84926;BME280;75187;48.190;16.294;2024-03-06T10:06:24;99387.16;;;16.98;40.76
84926;BME280;75187;48.190;16.294;2024-03-06T10:08:50;99329.88;;;16.94;39.42
84926;BME280;75187;48.190;16.294;2024-03-06T10:11:17;99389.25;;;17.12;40.03
84926;BME280;75187;48.190;16.294;2024-03-06T10:13:43;99352.31;;;17.17;39.72
84926;BME280;75187;48.190;16.294;2024-03-06T10:16:08;99361.47;;;16.89;39.86
84926;BME280;75187;48.190;16.294;2024-03-06T10:18:35;99289.44;;;16.48;40.45
84926;BME280;75187;48.190;16.294;2024-03-06T10:21:01;99298.88;;;16.93;39.96
84926;BME280;75187;48.190;16.294;2024-03-06T10:23:26;99281.91;;;16.44;39.63
84926;BME280;75187;48.190;16.294;2024-03-06T10:25:55;99390.84;;;17.23;39.55
84926;BME280;75187;48.190;16.294;2024-03-06T10:28:22;99286.75;;;16.66;39.68
84926;BME280;75187;48.190;16.294;2024-03-06T10:30:48;99280.50;;;16.83;39.59
84926;BME280;75187;48.190;16.294;2024-03-06T10:33:15;99377.09;;;16.84;39.51
84926;BME280;75187;48.190;16.294;2024-03-06T10:35:42;99385.72;;;17.29;39.84
84926;BME280;75187;48.190;16.294;2024-03-06T10:38:09;99385.34;;;16.99;40.64
84926;BME280;75187;48.190;16.294;2024-03-06T10:40:37;99387.13;;;16.48;40.13
84926;BME280;75187;48.190;16.294;2024-03-06T10:43:04;99287.19;;;16.01;40.77
84926;BME280;75187;48.190;16.294;2024-03-06T10:48:04;99268.59;;;16.94;39.28
84926;BME280;75187;48.190;16.294;2024-03-06T10:50:31;99270.41;;;17.27;38.66
84926;BME280;75187;48.190;16.294;2024-03-06T10:52:57;99314.50;;;17.47;37.71
84926;BME280;75187;48.190;16.294;2024-03-06T10:55:24;99335.28;;;17.10;37.88
84926;BME280;75187;48.190;16.294;2024-03-06T10:57:52;99391.16;;;16.94;39.26
84926;BME280;75187;48.190;16.294;2024-03-06T11:00:18;99372.88;;;17.33;38.72
84926;BME280;75187;48.190;16.294;2024-03-06T11:02:46;99372.31;;;17.21;38.29
84926;BME280;75187;48.190;16.294;2024-03-06T11:05:16;99280.28;;;16.68;39.11
84926;BME280;75187;48.190;16.294;2024-03-06T11:07:42;99293.38;;;16.62;39.78
84926;BME280;75187;48.190;16.294;2024-03-06T11:10:09;99337.78;;;17.37;38.45
84926;BME280;75187;48.190;16.294;2024-03-06T11:12:42;99363.44;;;17.38;38.73
84926;BME280;75187;48.190;16.294;2024-03-06T11:15:16;99341.59;;;17.76;38.18
84926;BME280;75187;48.190;16.294;2024-03-06T11:17:44;99185.19;;;16.61;37.34
84926;BME280;75187;48.190;16.294;2024-03-06T11:20:18;99263.78;;;16.73;37.73
84926;BME280;75187;48.190;16.294;2024-03-06T11:28:27;99358.06;;;17.30;37.95
84926;BME280;75187;48.190;16.294;2024-03-06T11:30:56;99353.53;;;17.23;38.68
84926;BME280;75187;48.190;16.294;2024-03-06T11:41:12;99250.66;;;16.71;37.96
84926;BME280;75187;48.190;16.294;2024-03-06T11:43:42;99338.63;;;17.46;37.77
84926;BME280;75187;48.190;16.294;2024-03-06T11:46:09;99296.06;;;16.70;38.16
84926;BME280;75187;48.190;16.294;2024-03-06T11:48:36;99267.03;;;16.59;38.12
84926;BME280;75187;48.190;16.294;2024-03-06T11:51:01;99296.28;;;16.76;39.14
84926;BME280;75187;48.190;16.294;2024-03-06T11:53:28;99308.88;;;16.91;38.56
84926;BME280;75187;48.190;16.294;2024-03-06T11:55:54;99320.41;;;17.00;37.99
84926;BME280;75187;48.190;16.294;2024-03-06T11:58:22;99340.50;;;17.20;39.17
84926;BME280;75187;48.190;16.294;2024-03-06T12:00:47;99250.91;;;16.35;38.31
84926;BME280;75187;48.190;16.294;2024-03-06T12:03:13;99263.50;;;16.33;38.32
84926;BME280;75187;48.190;16.294;2024-03-06T12:05:38;99259.91;;;15.81;39.87
84926;BME280;75187;48.190;16.294;2024-03-06T12:08:06;99304.84;;;16.37;40.48
84926;BME280;75187;48.190;16.294;2024-03-06T12:10:36;99257.94;;;16.01;39.86
84926;BME280;75187;48.190;16.294;2024-03-06T12:13:03;99328.22;;;16.16;40.21
84926;BME280;75187;48.190;16.294;2024-03-06T12:15:29;99307.38;;;15.59;41.28
84926;BME280;75187;48.190;16.294;2024-03-06T12:17:54;99307.09;;;15.35;42.27
84926;BME280;75187;48.190;16.294;2024-03-06T12:20:20;99309.47;;;15.28;43.08
84926;BME280;75187;48.190;16.294;2024-03-06T12:22:48;99330.72;;;15.82;42.48
84926;BME280;75187;48.190;16.294;2024-03-06T12:25:18;99330.66;;;15.92;41.70
84926;BME280;75187;48.190;16.294;2024-03-06T12:27:44;99136.44;;;14.79;41.59
84926;BME280;75187;48.190;16.294;2024-03-06T12:30:10;99296.44;;;15.62;41.61
84926;BME280;75187;48.190;16.294;2024-03-06T12:32:38;99330.16;;;15.88;41.45
84926;BME280;75187;48.190;16.294;2024-03-06T12:35:04;99317.19;;;15.76;41.65
84926;BME280;75187;48.190;16.294;2024-03-06T12:37:31;99335.16;;;16.09;42.09
84926;BME280;75187;48.190;16.294;2024-03-06T12:39:56;99298.59;;;15.76;41.93
84926;BME280;75187;48.190;16.294;2024-03-06T12:42:22;99333.19;;;15.93;41.64
84926;BME280;75187;48.190;16.294;2024-03-06T12:44:47;99206.06;;;15.00;42.53
84926;BME280;75187;48.190;16.294;2024-03-06T12:47:13;99251.78;;;14.94;43.63
84926;BME280;75187;48.190;16.294;2024-03-06T12:49:39;99233.13;;;14.76;44.17
84926;BME280;75187;48.190;16.294;2024-03-06T12:52:04;99331.56;;;15.38;43.20
84926;BME280;75187;48.190;16.294;2024-03-06T12:54:30;99277.53;;;14.10;44.34
84926;BME280;75187;48.190;16.294;2024-03-06T12:56:55;99340.19;;;14.11;45.14
84926;BME280;75187;48.190;16.294;2024-03-06T12:59:22;99336.28;;;13.96;45.28
84926;BME280;75187;48.190;16.294;2024-03-06T13:01:47;99234.84;;;13.46;45.62